createdAt,value
2019-05-26T06:47:52.154Z,11.50
2019-05-26T06:50:20.119Z,14.50
2019-05-26T06:52:47.991Z,14.70
2019-05-26T06:55:15.849Z,14.90
2019-05-26T06:57:43.718Z,15.00
2019-05-26T07:00:13.017Z,15.10
2019-05-26T07:02:40.865Z,15.10
2019-05-26T07:05:08.922Z,15.20
2019-05-26T07:07:36.781Z,15.30
2019-05-26T07:10:08.074Z,15.30
2019-05-26T07:12:36.141Z,15.40
2019-05-26T07:15:05.598Z,15.40
2019-05-26T07:17:33.460Z,15.40
2019-05-26T07:20:01.332Z,15.40
2019-05-26T07:22:29.491Z,15.60
2019-05-26T07:24:57.358Z,16.00
2019-05-26T07:27:25.217Z,16.40
2019-05-26T07:29:53.086Z,16.60
2019-05-26T07:32:21.039Z,16.80
2019-05-26T07:34:48.902Z,16.90
2019-05-26T07:37:16.774Z,16.90
2019-05-26T07:39:44.641Z,16.60
2019-05-26T07:42:13.063Z,16.40
2019-05-26T07:44:40.913Z,16.10
2019-05-26T07:47:08.782Z,15.90
2019-05-26T07:49:36.660Z,15.80
2019-05-26T07:52:04.718Z,15.80
2019-05-26T07:54:32.587Z,15.90
2019-05-26T07:57:00.447Z,16.00
2019-05-26T07:59:28.318Z,16.00
2019-05-26T08:01:56.186Z,16.20
2019-05-26T08:04:24.063Z,16.50
2019-05-26T08:06:51.922Z,16.50
2019-05-26T08:09:19.822Z,16.50
2019-05-26T08:11:47.685Z,16.40
2019-05-26T08:14:15.556Z,16.20
2019-05-26T08:16:43.414Z,16.00
2019-05-26T08:19:11.306Z,15.90
2019-05-26T08:21:39.170Z,16.00
2019-05-26T08:24:07.061Z,15.90
2019-05-26T08:26:34.912Z,15.90
2019-05-26T08:29:02.787Z,15.90
2019-05-26T08:31:30.658Z,15.80
2019-05-26T08:33:58.521Z,15.70
2019-05-26T08:36:26.401Z,15.70
2019-05-26T08:38:54.259Z,15.80
2019-05-26T08:41:22.126Z,16.00
2019-05-26T08:43:50.002Z,16.10
2019-05-26T08:46:17.873Z,16.10
2019-05-26T08:48:45.735Z,16.00
2019-05-26T08:51:13.607Z,15.90
2019-05-26T08:53:41.485Z,15.80
2019-05-26T08:56:09.358Z,15.70
2019-05-26T08:58:37.289Z,15.70
2019-05-26T09:01:05.161Z,15.70
2019-05-26T09:03:33.039Z,15.60
2019-05-26T09:06:00.903Z,15.50
2019-05-26T09:08:28.899Z,15.50
2019-05-26T09:10:56.762Z,15.50
2019-05-26T09:13:24.632Z,15.50
2019-05-26T09:15:52.494Z,15.50
2019-05-26T09:18:20.366Z,15.50
2019-05-26T09:20:48.232Z,15.40
2019-05-26T09:23:16.104Z,15.40
2019-05-26T09:25:46.563Z,15.40
2019-05-26T09:28:13.519Z,15.40
2019-05-26T09:30:41.476Z,15.50
2019-05-26T09:33:09.346Z,15.50
2019-05-26T09:35:37.223Z,15.60
2019-05-26T09:38:05.078Z,15.60
2019-05-26T09:40:32.949Z,15.50
2019-05-26T09:43:15.047Z,15.50
2019-05-26T09:45:30.328Z,15.30
2019-05-26T09:47:58.195Z,15.30
2019-05-26T09:50:26.059Z,15.30
2019-05-26T09:52:53.936Z,15.20
2019-05-26T09:55:21.800Z,15.20
2019-05-26T09:57:49.667Z,15.20
2019-05-26T10:00:17.837Z,15.10
2019-05-26T10:02:45.759Z,15.10
2019-05-26T10:05:13.627Z,15.10
2019-05-26T10:07:41.500Z,15.10
2019-05-26T10:10:09.638Z,15.10
2019-05-26T10:12:37.533Z,15.00
2019-05-26T10:15:05.792Z,15.10
2019-05-26T10:17:33.662Z,15.10
2019-05-26T10:20:01.532Z,15.10
2019-05-26T10:22:29.396Z,15.00
2019-05-26T10:24:57.259Z,14.90
2019-05-26T10:27:25.095Z,14.70
2019-05-26T10:29:52.919Z,14.40
2019-05-26T10:32:20.819Z,14.20
2019-05-26T10:34:48.688Z,14.00
2019-05-26T10:37:16.560Z,14.00
2019-05-26T10:39:45.302Z,14.00
2019-05-26T10:42:13.314Z,14.10
2019-05-26T10:44:41.187Z,14.20
2019-05-26T10:47:09.050Z,14.30
2019-05-26T10:49:36.924Z,14.30
2019-05-26T10:52:04.787Z,14.30
2019-05-26T10:54:32.731Z,14.30
2019-05-26T10:57:00.667Z,14.30
2019-05-26T10:59:28.525Z,14.20
2019-05-26T11:01:56.395Z,14.20
2019-05-26T11:04:24.262Z,14.10
2019-05-26T11:06:52.055Z,14.00
2019-05-26T11:09:19.925Z,13.90
2019-05-26T11:11:47.792Z,14.00
2019-05-26T11:14:15.657Z,14.00
2019-05-26T11:16:43.520Z,13.90
2019-05-26T11:19:11.395Z,13.90
2019-05-26T11:21:39.255Z,13.90
2019-05-26T11:24:07.111Z,14.00
2019-05-26T11:26:34.981Z,14.00
2019-05-26T11:29:02.863Z,14.00
2019-05-26T11:31:30.725Z,14.00
2019-05-26T11:33:58.582Z,13.90
2019-05-26T11:36:26.449Z,13.90
2019-05-26T11:38:54.314Z,13.80
2019-05-26T11:41:22.183Z,13.60
2019-05-26T11:43:50.052Z,13.40
2019-05-26T11:46:17.936Z,13.20
2019-05-26T11:48:45.809Z,13.20
2019-05-26T11:51:13.684Z,13.20
2019-05-26T11:53:41.550Z,13.30
2019-05-26T11:56:09.415Z,13.30
2019-05-26T11:58:37.288Z,13.30
2019-05-26T12:01:05.142Z,13.30
2019-05-26T12:03:33.011Z,13.30
2019-05-26T12:06:00.882Z,13.30
2019-05-26T12:08:28.749Z,13.40
2019-05-26T12:10:58.507Z,13.40
2019-05-26T12:13:26.130Z,13.30
2019-05-26T12:15:54.000Z,13.30
2019-05-26T12:18:21.871Z,13.40
2019-05-26T12:20:49.738Z,13.50
2019-05-26T12:23:17.605Z,13.70
2019-05-26T12:25:45.487Z,13.90
2019-05-26T12:28:13.388Z,14.10
2019-05-26T12:30:41.256Z,14.30
2019-05-26T12:33:09.123Z,14.30
2019-05-26T12:35:41.464Z,14.40
2019-05-26T12:38:09.322Z,14.40
2019-05-26T12:40:37.191Z,14.20
2019-05-26T12:43:05.063Z,14.20
2019-05-26T12:45:32.935Z,14.00
2019-05-26T12:48:00.799Z,14.00
2019-05-26T12:50:28.674Z,13.90
2019-05-26T12:52:56.530Z,13.80
2019-05-26T12:55:24.408Z,13.70
2019-05-26T12:57:52.285Z,13.70
2019-05-26T13:00:20.247Z,13.70
2019-05-26T13:02:48.373Z,13.60
2019-05-26T13:05:16.829Z,13.60
2019-05-26T13:07:44.696Z,13.50
2019-05-26T13:10:12.561Z,13.60
2019-05-26T13:12:40.431Z,13.50
2019-05-26T13:15:09.786Z,13.50
2019-05-26T13:17:37.657Z,13.50
2019-05-26T13:20:09.175Z,13.50
2019-05-26T13:22:37.473Z,13.50
2019-05-26T13:25:07.282Z,13.50
2019-05-26T13:27:35.150Z,13.40
2019-05-26T13:30:04.549Z,13.50
2019-05-26T13:32:32.371Z,13.50
2019-05-26T13:35:00.279Z,13.50
2019-05-26T13:37:28.154Z,13.50
2019-05-26T13:39:56.020Z,13.60
2019-05-26T13:42:23.886Z,13.50
2019-05-26T13:44:51.755Z,13.40
2019-05-26T13:47:26.142Z,13.30
2019-05-26T13:49:49.209Z,13.30
2019-05-26T13:52:17.091Z,13.30
2019-05-26T13:54:44.959Z,13.30
2019-05-26T13:57:12.823Z,13.20
2019-05-26T13:59:40.695Z,13.20
2019-05-26T14:02:08.559Z,13.20
2019-05-26T14:04:36.499Z,13.20
2019-05-26T14:07:04.661Z,13.20
2019-05-26T14:09:32.533Z,13.30
2019-05-26T14:12:00.399Z,13.20
2019-05-26T14:14:28.478Z,13.30
2019-05-26T14:16:57.238Z,13.30
2019-05-26T14:19:26.575Z,13.40
2019-05-26T14:21:54.437Z,13.30
2019-05-26T14:24:22.311Z,13.20
2019-05-26T14:26:50.174Z,13.20
2019-05-26T14:29:18.043Z,13.20
2019-05-26T14:31:45.898Z,13.10
2019-05-26T14:34:13.833Z,13.00
2019-05-26T14:36:41.695Z,13.00
2019-05-26T14:39:09.907Z,12.90
2019-05-26T14:41:37.978Z,12.90
2019-05-26T14:44:06.143Z,12.80
2019-05-26T14:46:34.028Z,12.80
2019-05-26T14:49:01.907Z,12.70
2019-05-26T14:51:29.779Z,12.70
2019-05-26T14:53:57.654Z,12.70
2019-05-26T14:56:25.526Z,12.80
2019-05-26T14:58:53.395Z,12.80
2019-05-26T15:01:21.265Z,12.90
2019-05-26T15:03:49.127Z,12.80
2019-05-26T15:06:17.003Z,12.90
2019-05-26T15:08:44.865Z,12.90
2019-05-26T15:11:12.762Z,13.00
2019-05-26T15:13:40.622Z,13.10
2019-05-26T15:16:10.257Z,13.10
2019-05-26T15:18:38.004Z,13.20
2019-05-26T15:21:07.103Z,13.30
2019-05-26T15:23:34.976Z,13.30
2019-05-26T15:26:05.300Z,13.20
2019-05-26T15:28:32.347Z,13.20
2019-05-26T15:31:00.217Z,13.20
2019-05-26T15:33:28.091Z,13.00
2019-05-26T15:35:55.966Z,13.00
2019-05-26T15:38:23.840Z,12.90
2019-05-26T15:40:51.736Z,12.80
2019-05-26T15:43:19.605Z,12.80
2019-05-26T15:45:47.470Z,12.80
2019-05-26T15:48:15.355Z,12.70
2019-05-26T15:50:43.210Z,12.70
2019-05-26T15:53:11.079Z,12.60
2019-05-26T15:55:40.008Z,12.50
2019-05-26T15:58:08.317Z,12.40
2019-05-26T16:00:36.208Z,12.40
2019-05-26T16:03:04.074Z,12.40
2019-05-26T16:05:31.953Z,12.50
2019-05-26T16:07:59.911Z,12.50
2019-05-26T16:10:27.782Z,12.50
2019-05-26T16:12:55.637Z,12.50
2019-05-26T16:15:23.559Z,12.40
2019-05-26T16:17:51.423Z,12.40
2019-05-26T16:20:19.287Z,12.30
2019-05-26T16:22:47.164Z,12.30
2019-05-26T16:25:15.230Z,12.20
2019-05-26T16:27:43.109Z,12.20
2019-05-26T16:30:11.170Z,12.10
2019-05-26T16:32:39.050Z,12.10
2019-05-26T16:35:07.000Z,12.10
2019-05-26T16:37:34.865Z,12.10
2019-05-26T16:40:02.935Z,12.00
2019-05-26T16:42:30.802Z,12.00
2019-05-26T16:44:58.666Z,12.00
2019-05-26T16:47:26.543Z,12.10
2019-05-26T16:49:54.410Z,12.10
2019-05-26T16:52:22.285Z,12.10
2019-05-26T16:54:50.138Z,12.10
2019-05-26T16:57:18.003Z,12.20
2019-05-26T16:59:45.869Z,12.20
2019-05-26T17:02:13.735Z,12.20
2019-05-26T17:04:48.982Z,12.20
2019-05-26T17:07:16.853Z,12.10
2019-05-26T17:09:44.728Z,12.10
2019-05-26T17:12:12.591Z,12.10
2019-05-26T17:14:40.459Z,12.10
2019-05-26T17:17:14.605Z,12.10
2019-05-26T17:19:52.888Z,12.10
2019-05-26T17:22:20.913Z,12.00
2019-05-26T17:24:48.893Z,12.00
2019-05-26T17:27:18.567Z,12.00
2019-05-26T17:29:47.524Z,12.00
2019-05-26T17:32:15.528Z,12.00
2019-05-26T17:34:43.432Z,12.00
2019-05-26T17:37:11.296Z,12.00
2019-05-26T17:39:39.162Z,11.90
2019-05-26T17:42:07.184Z,11.90
2019-05-26T17:44:35.055Z,11.80
2019-05-26T17:47:03.408Z,11.90
2019-05-26T17:49:31.266Z,11.80
2019-05-26T17:51:59.206Z,11.80
2019-05-26T17:54:27.026Z,11.80
2019-05-26T17:56:55.225Z,11.80
2019-05-26T17:59:23.147Z,11.80
